SBJU Informações do Aeroporto

Informações da Pista
Pista 13 Comprimento 5906 ft Largura 148 ft
Elevação 0 ft Limite 0 ft Heading 0
Pista 31 Comprimento 5906 ft Largura 148 ft
Elevação 0 ft Limite 0 ft Heading 0
Frequências do Aeroporto
Tipo AFIS Nome JUAZEIRO R Frequência 131.75 MHZ
Navaids do Aeroporto
Tipo NDB Nome Juazeiro Frequência 205 KHZ
Informações meteorológicas do aeroporto e NOTAM
ADDS - METARS form results

(1141 UTC 18 January 2019)
Data provider http://aviationweather.gov/metar/data/
 
METAR text: SBJU 181100Z 06004KT 9999 FEW009 BKN020 24/22 Q1018
Conditions at: SBJU (JUAZEIRO D NORTE, BR) observed 1100 UTC 18 January 2019
Temperature: 24.0°C (75°F)
Dewpoint: 22.0°C (72°F) [RH = 89%]
Pressure (altimeter): 30.06 inches Hg (1018.0 mb)
Winds: from the ENE (60 degrees) at 5 MPH (4 knots; 2.1 m/s)
Visibility: 6 or more miles (10+ km)
Ceiling: 2000 feet AGL
Clouds: few clouds at 900 feet AGL
broken clouds at 2000 feet AGL
Weather: no significant weather observed at this time